Terminal Aerodrome Forecast
Issued by NWS Jackson, KY

Home | Current Version | Previous Version | Text Only | Print | Product List | Glossary On
Versions: 1 2 3 4 5 6 7 8 9 10 11 12 13 14
470
FTUS43 KJKL 291740 AAB
TAFLOZ
TAF AMD
KLOZ 291740Z 2918/3018 24005KT P6SM SCT020 SCT050 SCT250
     FM300000 00000KT P6SM SCT250
     FM301100 00000KT P6SM BKN010
     FM301300 VRB03KT P6SM SCT080=

USA.gov is the U.S. government's official web portal to all federal, state and local government web resources and services.